ADR136 LJLJ-LOWW
Flight info
| Callsign | ADR136 |
|---|---|
| Flight time | 0h 36m |
| Altitude | 27000 |
| Route | ARLON DCT RADLY DCT NIGSI NIGSI2W |
| Aircraft | A319/M-SDE3FGHIRWY/LB1 |
Departure
| Time | 2026-04-22 05:32 |
|---|---|
| Airport | Ljubljana Jože Pučnik Airport (LJLJ) |
Arrival
| Time | 2026-04-22 06:08 |
|---|---|
| Airport | Vienna International Airport (LOWW) |
| Time | Latitude | Longitude | Altitude | Speed | Heading |
|---|---|---|---|---|---|
| 2026-04-22 04:51 | 46.23028 | 14.45421 | 1259 ft | 0 kts | 36° |
| 2026-04-22 05:23 | 46.23028 | 14.45420 | 1258 ft | 1 kts | 36° |
| 2026-04-22 05:23 | 46.23013 | 14.45403 | 1268 ft | 3 kts | 45° |
| 2026-04-22 05:23 | 46.23000 | 14.45382 | 1258 ft | 3 kts | 59° |
| 2026-04-22 05:24 | 46.22992 | 14.45356 | 1263 ft | 3 kts | 84° |
| 2026-04-22 05:24 | 46.22992 | 14.45339 | 1266 ft | 3 kts | 109° |
| 2026-04-22 05:24 | 46.22996 | 14.45326 | 1265 ft | 0 kts | 126° |
| 2026-04-22 05:27 | 46.22992 | 14.45334 | 1266 ft | 3 kts | 126° |
| 2026-04-22 05:27 | 46.22978 | 14.45361 | 1259 ft | 4 kts | 126° |
| 2026-04-22 05:27 | 46.22956 | 14.45404 | 1259 ft | 7 kts | 127° |
| 2026-04-22 05:28 | 46.22929 | 14.45402 | 1259 ft | 5 kts | 213° |
| 2026-04-22 05:28 | 46.22892 | 14.45369 | 1267 ft | 7 kts | 216° |
| 2026-04-22 05:28 | 46.22845 | 14.45316 | 1259 ft | 8 kts | 229° |
| 2026-04-22 05:28 | 46.22869 | 14.45244 | 1260 ft | 9 kts | 307° |
| 2026-04-22 05:29 | 46.22909 | 14.45166 | 1266 ft | 10 kts | 307° |
| 2026-04-22 05:29 | 46.22955 | 14.45078 | 1263 ft | 12 kts | 308° |
| 2026-04-22 05:29 | 46.23005 | 14.44982 | 1268 ft | 13 kts | 305° |
| 2026-04-22 05:29 | 46.23059 | 14.44873 | 1268 ft | 14 kts | 306° |
| 2026-04-22 05:30 | 46.23118 | 14.44759 | 1270 ft | 15 kts | 307° |
| 2026-04-22 05:30 | 46.23180 | 14.44638 | 1274 ft | 15 kts | 306° |
| 2026-04-22 05:30 | 46.23245 | 14.44510 | 1276 ft | 16 kts | 306° |
| 2026-04-22 05:30 | 46.23314 | 14.44375 | 1279 ft | 17 kts | 306° |
| 2026-04-22 05:31 | 46.23386 | 14.44233 | 1282 ft | 16 kts | 305° |
| 2026-04-22 05:31 | 46.23392 | 14.44126 | 1284 ft | 13 kts | 238° |
| 2026-04-22 05:31 | 46.23297 | 14.44080 | 1283 ft | 18 kts | 172° |
| 2026-04-22 05:31 | 46.23172 | 14.44195 | 1280 ft | 28 kts | 131° |
| 2026-04-22 05:32 | 46.22969 | 14.44587 | 1272 ft | 81 kts | 126° |
| 2026-04-22 05:32 | 46.22502 | 14.45501 | 1258 ft | 143 kts | 126° |
| 2026-04-22 05:32 | 46.21837 | 14.46766 | 1643 ft | 160 kts | 128° |
| 2026-04-22 05:32 | 46.21162 | 14.48037 | 2400 ft | 159 kts | 126° |
| 2026-04-22 05:33 | 46.20510 | 14.49308 | 3143 ft | 157 kts | 123° |
| 2026-04-22 05:33 | 46.19864 | 14.50574 | 3798 ft | 156 kts | 121° |
| 2026-04-22 05:33 | 46.19223 | 14.51833 | 4466 ft | 155 kts | 121° |
| 2026-04-22 05:33 | 46.18731 | 14.53260 | 4898 ft | 167 kts | 95° |
| 2026-04-22 05:34 | 46.18999 | 14.54955 | 5203 ft | 190 kts | 55° |
| 2026-04-22 05:34 | 46.19903 | 14.56475 | 5650 ft | 214 kts | 52° |
| 2026-04-22 05:34 | 46.20818 | 14.58330 | 6213 ft | 239 kts | 56° |
| 2026-04-22 05:34 | 46.21760 | 14.60431 | 6932 ft | 256 kts | 57° |
| 2026-04-22 05:35 | 46.22733 | 14.62631 | 7870 ft | 263 kts | 56° |
| 2026-04-22 05:35 | 46.23734 | 14.64870 | 8862 ft | 268 kts | 54° |
| 2026-04-22 05:35 | 46.24759 | 14.67133 | 9853 ft | 272 kts | 53° |
| 2026-04-22 05:35 | 46.25818 | 14.69439 | 10577 ft | 285 kts | 53° |
| 2026-04-22 05:36 | 46.26970 | 14.71912 | 10939 ft | 308 kts | 53° |
| 2026-04-22 05:36 | 46.28203 | 14.74538 | 11390 ft | 326 kts | 53° |
| 2026-04-22 05:36 | 46.29490 | 14.77288 | 12141 ft | 333 kts | 53° |
| 2026-04-22 05:36 | 46.30800 | 14.80102 | 12943 ft | 339 kts | 53° |
| 2026-04-22 05:37 | 46.32129 | 14.82966 | 13713 ft | 344 kts | 53° |
| 2026-04-22 05:37 | 46.33451 | 14.85817 | 14434 ft | 349 kts | 53° |
| 2026-04-22 05:37 | 46.34811 | 14.88757 | 15154 ft | 353 kts | 53° |
| 2026-04-22 05:37 | 46.36197 | 14.91756 | 15855 ft | 358 kts | 53° |
| 2026-04-22 05:38 | 46.37591 | 14.94765 | 16581 ft | 361 kts | 53° |
| 2026-04-22 05:38 | 46.38996 | 14.97795 | 17258 ft | 366 kts | 53° |
| 2026-04-22 05:38 | 46.40494 | 15.00740 | 18008 ft | 366 kts | 46° |
| 2026-04-22 05:38 | 46.42328 | 15.03305 | 18730 ft | 367 kts | 36° |
| 2026-04-22 05:39 | 46.44463 | 15.05350 | 19363 ft | 368 kts | 26° |
| 2026-04-22 05:39 | 46.46738 | 15.07071 | 20027 ft | 371 kts | 25° |
| 2026-04-22 05:39 | 46.49046 | 15.08826 | 20702 ft | 375 kts | 25° |
| 2026-04-22 05:39 | 46.51364 | 15.10604 | 21352 ft | 378 kts | 25° |
| 2026-04-22 05:40 | 46.53700 | 15.12405 | 22004 ft | 381 kts | 25° |
| 2026-04-22 05:40 | 46.56023 | 15.14203 | 22631 ft | 385 kts | 25° |
| 2026-04-22 05:40 | 46.58421 | 15.16062 | 23257 ft | 388 kts | 26° |
| 2026-04-22 05:40 | 46.60780 | 15.17889 | 23880 ft | 390 kts | 26° |
| 2026-04-22 05:41 | 46.63181 | 15.19748 | 24388 ft | 392 kts | 26° |
| 2026-04-22 05:41 | 46.65516 | 15.21840 | 24850 ft | 397 kts | 34° |
| 2026-04-22 05:41 | 46.67709 | 15.24303 | 25307 ft | 401 kts | 36° |
| 2026-04-22 05:41 | 46.69930 | 15.26814 | 25777 ft | 404 kts | 36° |
| 2026-04-22 05:42 | 46.72161 | 15.29340 | 26226 ft | 407 kts | 36° |
| 2026-04-22 05:42 | 46.74410 | 15.31886 | 26681 ft | 410 kts | 36° |
| 2026-04-22 05:42 | 46.76647 | 15.34418 | 27097 ft | 414 kts | 35° |
| 2026-04-22 05:42 | 46.78920 | 15.36988 | 27211 ft | 409 kts | 36° |
| 2026-04-22 05:43 | 46.81150 | 15.39514 | 27212 ft | 403 kts | 36° |
| 2026-04-22 05:43 | 46.83360 | 15.42021 | 27211 ft | 401 kts | 36° |
| 2026-04-22 05:43 | 46.85564 | 15.44520 | 27219 ft | 400 kts | 36° |
| 2026-04-22 05:43 | 46.87773 | 15.47027 | 27222 ft | 400 kts | 36° |
| 2026-04-22 05:44 | 46.89966 | 15.49518 | 27218 ft | 400 kts | 36° |
| 2026-04-22 05:44 | 46.92164 | 15.52019 | 27218 ft | 400 kts | 36° |
| 2026-04-22 05:44 | 46.94331 | 15.54488 | 27219 ft | 400 kts | 36° |
| 2026-04-22 05:44 | 46.96531 | 15.56996 | 27224 ft | 398 kts | 37° |
| 2026-04-22 05:45 | 46.98716 | 15.59485 | 27219 ft | 397 kts | 37° |
| 2026-04-22 05:45 | 47.00887 | 15.61964 | 27221 ft | 401 kts | 37° |
| 2026-04-22 05:45 | 47.03104 | 15.64507 | 27218 ft | 406 kts | 37° |
| 2026-04-22 05:45 | 47.05333 | 15.67069 | 27218 ft | 407 kts | 37° |
| 2026-04-22 05:46 | 47.07573 | 15.69647 | 27219 ft | 407 kts | 37° |
| 2026-04-22 05:46 | 47.09774 | 15.72182 | 26952 ft | 398 kts | 37° |
| 2026-04-22 05:46 | 47.11915 | 15.74647 | 26325 ft | 395 kts | 37° |
| 2026-04-22 05:46 | 47.14075 | 15.77134 | 25733 ft | 392 kts | 38° |
| 2026-04-22 05:47 | 47.16205 | 15.79588 | 25234 ft | 386 kts | 38° |
| 2026-04-22 05:47 | 47.18305 | 15.82012 | 24719 ft | 381 kts | 38° |
| 2026-04-22 05:47 | 47.20381 | 15.84408 | 24209 ft | 377 kts | 38° |
| 2026-04-22 05:47 | 47.22436 | 15.86779 | 23693 ft | 373 kts | 38° |
| 2026-04-22 05:48 | 47.24469 | 15.89130 | 23096 ft | 370 kts | 39° |
| 2026-04-22 05:48 | 47.26483 | 15.91466 | 22531 ft | 367 kts | 38° |
| 2026-04-22 05:48 | 47.28484 | 15.93790 | 21932 ft | 365 kts | 38° |
| 2026-04-22 05:48 | 47.30449 | 15.96075 | 21383 ft | 364 kts | 38° |
| 2026-04-22 05:49 | 47.32433 | 15.98382 | 21196 ft | 362 kts | 38° |
| 2026-04-22 05:49 | 47.34421 | 16.00694 | 21214 ft | 362 kts | 38° |
| 2026-04-22 05:49 | 47.36448 | 16.02890 | 21221 ft | 363 kts | 32° |
| 2026-04-22 05:49 | 47.38722 | 16.04513 | 21222 ft | 364 kts | 21° |
| 2026-04-22 05:50 | 47.41136 | 16.05705 | 21221 ft | 364 kts | 19° |
| 2026-04-22 05:50 | 47.43544 | 16.06885 | 21221 ft | 364 kts | 19° |
| 2026-04-22 05:50 | 47.45918 | 16.08057 | 21219 ft | 364 kts | 20° |
| 2026-04-22 05:50 | 47.48330 | 16.09254 | 21221 ft | 364 kts | 20° |
| 2026-04-22 05:51 | 47.50734 | 16.10449 | 21221 ft | 364 kts | 20° |
| 2026-04-22 05:51 | 47.53137 | 16.11645 | 21216 ft | 364 kts | 20° |
| 2026-04-22 05:51 | 47.55548 | 16.12846 | 21223 ft | 364 kts | 20° |
| 2026-04-22 05:51 | 47.57918 | 16.14025 | 21221 ft | 364 kts | 20° |
| 2026-04-22 05:52 | 47.60321 | 16.15219 | 21220 ft | 364 kts | 20° |
| 2026-04-22 05:52 | 47.62724 | 16.16418 | 21223 ft | 364 kts | 20° |
| 2026-04-22 05:52 | 47.65125 | 16.17616 | 21223 ft | 364 kts | 20° |
| 2026-04-22 05:52 | 47.67526 | 16.18816 | 21225 ft | 364 kts | 20° |
| 2026-04-22 05:53 | 47.69903 | 16.20008 | 21219 ft | 364 kts | 20° |
| 2026-04-22 05:53 | 47.72302 | 16.21214 | 21225 ft | 363 kts | 20° |
| 2026-04-22 05:53 | 47.74574 | 16.22826 | 21221 ft | 362 kts | 34° |
| 2026-04-22 05:53 | 47.76461 | 16.25283 | 21226 ft | 361 kts | 49° |
| 2026-04-22 05:54 | 47.77825 | 16.28430 | 21223 ft | 362 kts | 64° |
| 2026-04-22 05:54 | 47.78703 | 16.31952 | 21225 ft | 363 kts | 69° |
| 2026-04-22 05:54 | 47.79534 | 16.35505 | 21230 ft | 363 kts | 69° |
| 2026-04-22 05:54 | 47.80357 | 16.39024 | 21230 ft | 363 kts | 69° |
| 2026-04-22 05:55 | 47.81188 | 16.42580 | 21220 ft | 364 kts | 69° |
| 2026-04-22 05:55 | 47.82018 | 16.46136 | 21220 ft | 363 kts | 69° |
| 2026-04-22 05:55 | 47.82850 | 16.49692 | 21221 ft | 363 kts | 69° |
| 2026-04-22 05:55 | 47.83675 | 16.53213 | 21219 ft | 363 kts | 69° |
| 2026-04-22 05:56 | 47.84505 | 16.56770 | 21224 ft | 362 kts | 69° |
| 2026-04-22 05:56 | 47.85311 | 16.60250 | 21186 ft | 347 kts | 69° |
| 2026-04-22 05:56 | 47.86075 | 16.63551 | 21039 ft | 334 kts | 69° |
| 2026-04-22 05:56 | 47.86829 | 16.66812 | 20335 ft | 332 kts | 69° |
| 2026-04-22 05:57 | 47.87582 | 16.70071 | 19485 ft | 330 kts | 69° |
| 2026-04-22 05:57 | 47.88327 | 16.73299 | 18751 ft | 329 kts | 69° |
| 2026-04-22 05:57 | 47.89071 | 16.76511 | 18164 ft | 326 kts | 69° |
| 2026-04-22 05:57 | 47.89809 | 16.79706 | 17555 ft | 323 kts | 69° |
| 2026-04-22 05:58 | 47.90320 | 16.82907 | 16968 ft | 323 kts | 84° |
| 2026-04-22 05:58 | 47.90109 | 16.86240 | 16397 ft | 324 kts | 103° |
| 2026-04-22 05:58 | 47.89223 | 16.89338 | 15824 ft | 325 kts | 113° |
| 2026-04-22 05:58 | 47.88211 | 16.92346 | 15257 ft | 323 kts | 113° |
| 2026-04-22 05:59 | 47.87202 | 16.95341 | 14710 ft | 321 kts | 113° |
| 2026-04-22 05:59 | 47.86216 | 16.98268 | 14199 ft | 319 kts | 113° |
| 2026-04-22 05:59 | 47.85242 | 17.01228 | 13615 ft | 315 kts | 109° |
| 2026-04-22 05:59 | 47.84884 | 17.04347 | 13055 ft | 304 kts | 82° |
| 2026-04-22 06:00 | 47.85580 | 17.07252 | 12456 ft | 296 kts | 53° |
| 2026-04-22 06:00 | 47.87108 | 17.09240 | 11840 ft | 293 kts | 27° |
| 2026-04-22 06:00 | 47.88946 | 17.10467 | 11194 ft | 293 kts | 24° |
| 2026-04-22 06:00 | 47.90896 | 17.11265 | 10611 ft | 292 kts | 1° |
| 2026-04-22 06:01 | 47.92837 | 17.10478 | 10080 ft | 294 kts | 330° |
| 2026-04-22 06:01 | 47.94244 | 17.08277 | 9460 ft | 297 kts | 305° |
| 2026-04-22 06:01 | 47.95265 | 17.05589 | 8842 ft | 298 kts | 299° |
| 2026-04-22 06:01 | 47.96149 | 17.02803 | 8267 ft | 296 kts | 297° |
| 2026-04-22 06:02 | 47.96988 | 17.00013 | 7710 ft | 293 kts | 297° |
| 2026-04-22 06:02 | 47.97823 | 16.97267 | 7283 ft | 286 kts | 297° |
| 2026-04-22 06:02 | 47.98652 | 16.94617 | 6948 ft | 277 kts | 298° |
| 2026-04-22 06:02 | 47.99469 | 16.92078 | 6590 ft | 266 kts | 299° |
| 2026-04-22 06:03 | 48.00270 | 16.89637 | 6219 ft | 257 kts | 300° |
| 2026-04-22 06:03 | 48.01050 | 16.87281 | 5876 ft | 249 kts | 300° |
| 2026-04-22 06:03 | 48.01800 | 16.85028 | 5513 ft | 242 kts | 300° |
| 2026-04-22 06:03 | 48.02538 | 16.82812 | 5153 ft | 235 kts | 300° |
| 2026-04-22 06:04 | 48.03255 | 16.80665 | 4780 ft | 226 kts | 301° |
| 2026-04-22 06:04 | 48.03981 | 16.78614 | 4385 ft | 219 kts | 301° |
| 2026-04-22 06:04 | 48.04657 | 16.76619 | 3989 ft | 209 kts | 300° |
| 2026-04-22 06:04 | 48.05277 | 16.74739 | 3656 ft | 193 kts | 300° |
| 2026-04-22 06:05 | 48.05848 | 16.72998 | 3234 ft | 182 kts | 301° |
| 2026-04-22 06:05 | 48.06389 | 16.71351 | 2823 ft | 171 kts | 301° |
| 2026-04-22 06:05 | 48.06894 | 16.69810 | 2551 ft | 156 kts | 301° |
| 2026-04-22 06:05 | 48.07343 | 16.68439 | 2324 ft | 138 kts | 301° |
| 2026-04-22 06:06 | 48.07737 | 16.67237 | 2138 ft | 125 kts | 302° |
| 2026-04-22 06:06 | 48.08114 | 16.66089 | 1967 ft | 121 kts | 303° |
| 2026-04-22 06:06 | 48.08482 | 16.64967 | 1798 ft | 120 kts | 302° |
| 2026-04-22 06:06 | 48.08849 | 16.63849 | 1633 ft | 119 kts | 301° |
| 2026-04-22 06:07 | 48.09215 | 16.62732 | 1462 ft | 120 kts | 300° |
| 2026-04-22 06:07 | 48.09589 | 16.61597 | 1269 ft | 122 kts | 299° |
| 2026-04-22 06:07 | 48.09959 | 16.60467 | 1072 ft | 120 kts | 299° |
| 2026-04-22 06:07 | 48.10324 | 16.59343 | 920 ft | 120 kts | 297° |
| 2026-04-22 06:08 | 48.10686 | 16.58229 | 754 ft | 119 kts | 298° |
| 2026-04-22 06:08 | 48.11045 | 16.57125 | 629 ft | 109 kts | 298° |
| 2026-04-22 06:08 | 48.11348 | 16.56199 | 614 ft | 90 kts | 296° |
| 2026-04-22 06:08 | 48.11530 | 16.55646 | 613 ft | 40 kts | 296° |
| 2026-04-22 06:09 | 48.11614 | 16.55415 | 614 ft | 21 kts | 309° |
| 2026-04-22 06:09 | 48.11730 | 16.55243 | 610 ft | 26 kts | 316° |
| 2026-04-22 06:09 | 48.11821 | 16.55144 | 614 ft | 12 kts | 346° |
| 2026-04-22 06:09 | 48.11887 | 16.55171 | 616 ft | 11 kts | 61° |
| 2026-04-22 06:10 | 48.11857 | 16.55286 | 616 ft | 14 kts | 119° |
| 2026-04-22 06:10 | 48.11812 | 16.55430 | 617 ft | 17 kts | 116° |
| 2026-04-22 06:10 | 48.11755 | 16.55600 | 615 ft | 20 kts | 116° |
| 2026-04-22 06:10 | 48.11690 | 16.55799 | 612 ft | 23 kts | 116° |
| 2026-04-22 06:11 | 48.11618 | 16.56023 | 610 ft | 26 kts | 116° |
| 2026-04-22 06:11 | 48.11535 | 16.56277 | 615 ft | 29 kts | 116° |
| 2026-04-22 06:11 | 48.11441 | 16.56560 | 617 ft | 32 kts | 116° |
| 2026-04-22 06:11 | 48.11340 | 16.56869 | 618 ft | 35 kts | 115° |
| 2026-04-22 06:12 | 48.11255 | 16.57134 | 618 ft | 13 kts | 116° |
| 2026-04-22 06:12 | 48.11225 | 16.57233 | 617 ft | 10 kts | 99° |
| 2026-04-22 06:12 | 48.11264 | 16.57293 | 615 ft | 8 kts | 24° |
| 2026-04-22 06:12 | 48.11315 | 16.57332 | 616 ft | 8 kts | 27° |
| 2026-04-22 06:13 | 48.11368 | 16.57370 | 617 ft | 8 kts | 26° |
| 2026-04-22 06:13 | 48.11421 | 16.57411 | 615 ft | 9 kts | 27° |
| 2026-04-22 06:13 | 48.11478 | 16.57450 | 610 ft | 9 kts | 25° |
| 2026-04-22 06:13 | 48.11517 | 16.57468 | 610 ft | 9 kts | 359° |
| 2026-04-22 06:14 | 48.11574 | 16.57507 | 619 ft | 8 kts | 75° |
| 2026-04-22 06:14 | 48.11593 | 16.57553 | 615 ft | 7 kts | 33° |
| 2026-04-22 06:14 | 48.11652 | 16.57537 | 618 ft | 7 kts | 344° |
| 2026-04-22 06:14 | 48.11682 | 16.57524 | 616 ft | 7 kts | 344° |
| 2026-04-22 06:15 | 48.11731 | 16.57505 | 615 ft | 7 kts | 345° |
| 2026-04-22 06:15 | 48.11783 | 16.57484 | 618 ft | 8 kts | 345° |
| 2026-04-22 06:15 | 48.11814 | 16.57434 | 610 ft | 6 kts | 265° |
| 2026-04-22 06:15 | 48.11805 | 16.57370 | 610 ft | 6 kts | 271° |
| 2026-04-22 06:16 | 48.11824 | 16.57308 | 620 ft | 7 kts | 296° |
| 2026-04-22 06:16 | 48.11846 | 16.57241 | 612 ft | 8 kts | 296° |
| 2026-04-22 06:16 | 48.11861 | 16.57128 | 615 ft | 13 kts | 288° |
| 2026-04-22 06:16 | 48.11902 | 16.56999 | 616 ft | 14 kts | 297° |
| 2026-04-22 06:17 | 48.11936 | 16.56880 | 616 ft | 8 kts | 277° |
| 2026-04-22 06:17 | 48.11903 | 16.56839 | 617 ft | 6 kts | 204° |
| 2026-04-22 06:17 | 48.11882 | 16.56824 | 610 ft | 0 kts | 206° |